createdAt,value
2019-06-27T00:01:48.967Z,94.90
2019-06-27T00:04:17.743Z,95.17
2019-06-27T00:06:46.459Z,95.15
2019-06-27T00:09:16.209Z,95.40
2019-06-27T00:11:44.949Z,95.22
2019-06-27T00:14:13.640Z,95.23
2019-06-27T00:16:42.392Z,94.66
2019-06-27T00:19:11.088Z,94.51
2019-06-27T00:21:39.850Z,94.30
2019-06-27T00:24:08.553Z,94.00
2019-06-27T00:26:37.639Z,93.93
2019-06-27T00:29:06.520Z,93.45
2019-06-27T00:31:35.299Z,93.28
2019-06-27T00:34:03.972Z,93.28
2019-06-27T00:36:32.761Z,93.28
2019-06-27T00:39:01.540Z,92.82
2019-06-27T00:41:30.325Z,92.75
2019-06-27T00:43:59.143Z,92.91
2019-06-27T00:46:28.171Z,92.94
2019-06-27T00:48:57.209Z,92.89
2019-06-27T00:51:26.168Z,92.89
2019-06-27T00:53:54.912Z,92.85
2019-06-27T00:56:23.855Z,92.88
2019-06-27T00:58:52.885Z,92.48
2019-06-27T01:01:21.885Z,92.40
2019-06-27T01:03:50.561Z,92.48
2019-06-27T01:06:19.565Z,92.56
2019-06-27T01:08:48.336Z,92.49
2019-06-27T01:11:17.148Z,92.68
2019-06-27T01:13:46.107Z,92.49
2019-06-27T01:16:14.915Z,92.36
2019-06-27T01:18:43.665Z,92.35
2019-06-27T01:21:12.672Z,92.19
2019-06-27T01:23:44.238Z,92.14
2019-06-27T01:26:12.446Z,92.02
2019-06-27T01:28:41.199Z,91.94
2019-06-27T01:31:09.863Z,91.99
2019-06-27T01:33:38.560Z,91.86
2019-06-27T01:36:07.296Z,91.91
2019-06-27T01:38:36.251Z,91.77
2019-06-27T01:41:05.070Z,91.63
2019-06-27T01:43:33.982Z,91.65
2019-06-27T01:46:02.744Z,91.57
2019-06-27T01:48:31.683Z,91.50
2019-06-27T01:51:00.689Z,91.00
2019-06-27T01:53:29.377Z,91.10
2019-06-27T01:55:58.407Z,90.97
2019-06-27T01:58:27.187Z,90.86
2019-06-27T02:00:55.876Z,90.75
2019-06-27T02:03:24.637Z,90.65
2019-06-27T02:05:53.341Z,90.18
2019-06-27T02:08:22.090Z,90.19
2019-06-27T02:10:50.799Z,90.28
2019-06-27T02:13:19.543Z,90.06
2019-06-27T02:15:48.361Z,89.97
2019-06-27T02:18:17.149Z,89.63
2019-06-27T02:20:46.180Z,89.67
2019-06-27T02:23:16.019Z,89.78
2019-06-27T02:25:44.900Z,89.81
2019-06-27T02:28:13.566Z,89.39
2019-06-27T02:30:43.263Z,89.36
2019-06-27T02:33:12.200Z,89.49
2019-06-27T02:35:41.396Z,89.10
2019-06-27T02:38:10.206Z,89.06
2019-06-27T02:40:39.042Z,89.23
2019-06-27T02:43:07.726Z,89.29
2019-06-27T02:45:36.526Z,89.19
2019-06-27T02:48:05.500Z,89.22
2019-06-27T02:50:34.146Z,88.89
2019-06-27T02:53:02.978Z,88.67
2019-06-27T02:55:31.976Z,88.91
2019-06-27T02:58:00.640Z,89.10
2019-06-27T03:00:29.566Z,89.25
2019-06-27T03:02:58.352Z,89.41
2019-06-27T03:05:27.193Z,89.55
2019-06-27T03:07:55.962Z,89.60
2019-06-27T03:10:24.719Z,89.77
2019-06-27T03:12:53.779Z,89.71
2019-06-27T03:15:22.485Z,89.73
2019-06-27T03:17:51.143Z,89.68
2019-06-27T03:20:19.981Z,89.62
2019-06-27T03:22:48.677Z,89.59
2019-06-27T03:25:17.508Z,89.41
2019-06-27T03:27:46.569Z,89.31
2019-06-27T03:30:15.510Z,88.88
2019-06-27T03:32:44.319Z,88.53
2019-06-27T03:35:13.230Z,88.68
2019-06-27T03:37:41.975Z,88.48
2019-06-27T03:40:10.808Z,88.10
2019-06-27T03:42:39.831Z,87.23
2019-06-27T03:45:15.095Z,87.28
2019-06-27T03:47:40.068Z,86.91
2019-06-27T03:50:09.278Z,86.33
2019-06-27T03:52:38.281Z,86.08
2019-06-27T03:55:07.207Z,85.62
2019-06-27T03:57:35.884Z,85.96
2019-06-27T04:00:05.289Z,85.30
2019-06-27T04:02:34.083Z,85.52
2019-06-27T04:05:02.870Z,85.67
2019-06-27T04:07:31.820Z,84.76
2019-06-27T04:10:00.529Z,84.24
2019-06-27T04:12:29.310Z,83.69
2019-06-27T04:14:58.066Z,83.97
2019-06-27T04:17:26.827Z,84.03
2019-06-27T04:19:55.493Z,84.08
2019-06-27T04:22:24.582Z,83.85
2019-06-27T04:24:53.540Z,83.66
2019-06-27T04:27:22.309Z,83.76
2019-06-27T04:29:51.008Z,83.93
2019-06-27T04:32:20.027Z,83.98
2019-06-27T04:34:48.971Z,83.90
2019-06-27T04:37:18.066Z,83.81
2019-06-27T04:39:46.984Z,82.16
2019-06-27T04:42:15.773Z,82.22
2019-06-27T04:44:44.779Z,81.97
2019-06-27T04:47:13.749Z,81.98
2019-06-27T04:49:42.454Z,81.99
2019-06-27T04:52:11.152Z,79.78
2019-06-27T04:54:39.837Z,79.81
2019-06-27T04:57:08.572Z,79.38
2019-06-27T04:59:52.333Z,80.11
2019-06-27T05:02:07.937Z,80.13
2019-06-27T05:04:36.621Z,79.88
2019-06-27T05:07:05.468Z,79.82
2019-06-27T05:09:34.191Z,79.23
2019-06-27T05:12:02.951Z,78.60
2019-06-27T05:14:32.630Z,78.78
2019-06-27T05:17:01.639Z,78.61
2019-06-27T05:19:30.582Z,78.44
2019-06-27T05:21:59.345Z,77.39
2019-06-27T05:24:28.334Z,77.35
2019-06-27T05:26:57.315Z,75.69
2019-06-27T05:29:26.510Z,75.76
2019-06-27T05:31:55.495Z,75.46
2019-06-27T05:34:24.501Z,74.29
2019-06-27T05:36:53.263Z,74.68
2019-06-27T05:39:22.222Z,74.52
2019-06-27T05:41:51.002Z,71.52
2019-06-27T05:44:19.727Z,69.29
2019-06-27T05:46:48.430Z,70.40
2019-06-27T05:49:17.263Z,71.40
2019-06-27T05:51:45.957Z,72.35
2019-06-27T05:54:14.711Z,73.11
2019-06-27T05:56:43.636Z,73.37
2019-06-27T05:59:12.328Z,74.31
2019-06-27T06:01:41.039Z,74.52
2019-06-27T06:04:09.788Z,75.11
2019-06-27T06:06:38.530Z,75.35
2019-06-27T06:09:07.235Z,75.85
2019-06-27T06:11:36.001Z,77.32
2019-06-27T06:14:04.868Z,78.11
2019-06-27T06:16:33.554Z,78.27
2019-06-27T06:19:02.275Z,78.16
2019-06-27T06:21:30.981Z,77.98
2019-06-27T06:23:59.943Z,77.52
2019-06-27T06:26:28.934Z,78.05
2019-06-27T06:28:58.140Z,78.22
2019-06-27T06:31:26.944Z,78.06
2019-06-27T06:33:55.806Z,78.33
2019-06-27T06:36:24.870Z,78.20
2019-06-27T06:38:53.693Z,78.57
2019-06-27T06:41:22.423Z,78.31
2019-06-27T06:43:51.267Z,77.89
2019-06-27T06:46:20.717Z,77.61
2019-06-27T06:48:49.566Z,77.53
2019-06-27T06:51:18.452Z,77.24
2019-06-27T06:53:47.408Z,77.17
2019-06-27T06:56:19.597Z,76.88
2019-06-27T06:58:48.830Z,76.17
2019-06-27T07:01:17.587Z,76.06
2019-06-27T07:03:46.376Z,75.58
2019-06-27T07:06:15.075Z,74.64
2019-06-27T07:09:05.653Z,74.05
2019-06-27T07:11:34.392Z,73.24
2019-06-27T07:14:03.239Z,73.12
2019-06-27T07:16:32.056Z,73.19
2019-06-27T07:19:01.740Z,72.49
2019-06-27T07:21:30.529Z,71.68
2019-06-27T07:23:59.296Z,70.83
2019-06-27T07:26:28.081Z,71.61
2019-06-27T07:28:56.816Z,71.32
2019-06-27T07:31:26.095Z,70.68
2019-06-27T07:33:54.789Z,70.48
2019-06-27T07:36:23.481Z,70.83
2019-06-27T07:38:54.602Z,71.47
2019-06-27T07:41:23.369Z,71.34
2019-06-27T07:43:52.137Z,72.00
2019-06-27T07:46:25.469Z,71.31
2019-06-27T07:48:52.110Z,71.43
2019-06-27T07:51:22.216Z,69.38
2019-06-27T07:53:51.239Z,69.87
2019-06-27T07:56:20.063Z,70.25
2019-06-27T07:58:49.248Z,70.06
2019-06-27T08:01:34.125Z,70.22
2019-06-27T08:03:48.542Z,70.16
2019-06-27T08:06:17.614Z,70.39
2019-06-27T08:08:47.366Z,70.00
2019-06-27T08:11:16.168Z,66.23
2019-06-27T08:13:44.900Z,66.39
2019-06-27T08:16:16.236Z,66.96
2019-06-27T08:18:45.106Z,66.70
2019-06-27T08:21:14.129Z,66.17
2019-06-27T08:23:42.924Z,65.34
2019-06-27T08:26:11.640Z,65.10
2019-06-27T08:28:41.088Z,64.96
2019-06-27T08:31:10.292Z,65.61
2019-06-27T08:33:40.703Z,64.74
2019-06-27T08:36:11.085Z,65.21
2019-06-27T08:38:40.141Z,63.97
2019-06-27T08:41:09.150Z,64.78
2019-06-27T08:43:38.254Z,65.37
2019-06-27T08:46:12.939Z,65.25
2019-06-27T08:48:41.819Z,64.22
2019-06-27T08:51:10.523Z,63.72
2019-06-27T08:53:48.710Z,63.83
2019-06-27T08:56:17.449Z,64.37
2019-06-27T08:58:47.692Z,65.74
2019-06-27T09:01:16.564Z,64.65
2019-06-27T09:03:45.475Z,64.25
2019-06-27T09:06:14.205Z,64.04
2019-06-27T09:08:43.373Z,63.72
2019-06-27T09:11:12.162Z,61.05
2019-06-27T09:13:40.973Z,61.31
2019-06-27T09:16:11.140Z,59.64
2019-06-27T09:18:39.946Z,57.84
2019-06-27T09:21:16.046Z,58.04
2019-06-27T09:23:48.181Z,58.57
2019-06-27T09:26:18.555Z,58.45
2019-06-27T09:28:47.425Z,59.24
2019-06-27T09:31:16.288Z,59.37
2019-06-27T09:33:48.401Z,59.72
2019-06-27T09:36:20.715Z,59.06
2019-06-27T09:38:52.678Z,58.13
2019-06-27T09:41:21.948Z,57.89
2019-06-27T09:43:52.037Z,57.71
2019-06-27T09:46:24.116Z,57.99
2019-06-27T09:48:55.254Z,58.06
2019-06-27T09:51:24.444Z,56.01
2019-06-27T09:53:53.178Z,54.31
2019-06-27T09:56:22.066Z,53.74
2019-06-27T09:58:51.973Z,53.75
2019-06-27T10:01:20.773Z,53.79
2019-06-27T10:03:49.548Z,54.20
2019-06-27T10:06:18.409Z,54.14
2019-06-27T10:11:53.493Z,53.79
2019-06-27T10:14:25.697Z,54.11
2019-06-27T10:16:54.564Z,54.34
2019-06-27T10:19:23.430Z,53.82
2019-06-27T10:21:54.298Z,52.00
2019-06-27T10:24:29.289Z,53.39
2019-06-27T10:26:58.553Z,53.35
2019-06-27T10:29:27.618Z,52.52
2019-06-27T10:31:57.986Z,51.33
2019-06-27T10:34:28.073Z,52.27
2019-06-27T10:36:56.933Z,50.78
2019-06-27T10:39:25.763Z,51.27
2019-06-27T10:41:55.109Z,50.69
2019-06-27T10:44:23.993Z,49.81
2019-06-27T10:46:52.803Z,50.09
2019-06-27T10:49:21.741Z,50.08
2019-06-27T10:51:50.567Z,49.74
2019-06-27T10:54:20.706Z,50.06
2019-06-27T10:56:49.583Z,48.83
2019-06-27T10:59:18.466Z,48.29
2019-06-27T11:01:47.365Z,48.38
2019-06-27T11:04:16.530Z,48.59
2019-06-27T11:06:45.643Z,48.27
2019-06-27T11:09:23.845Z,48.87
2019-06-27T11:11:52.907Z,48.04
2019-06-27T11:14:21.672Z,49.84
2019-06-27T11:16:52.445Z,48.95
2019-06-27T11:19:21.163Z,48.31
2019-06-27T11:21:50.017Z,48.19
2019-06-27T11:24:18.769Z,48.91
2019-06-27T11:26:47.721Z,47.77
2019-06-27T11:29:16.565Z,48.06
2019-06-27T11:31:45.331Z,48.76
2019-06-27T11:34:14.361Z,46.08
2019-06-27T11:36:46.536Z,45.59
2019-06-27T11:39:16.146Z,46.29
2019-06-27T11:41:44.851Z,45.52
2019-06-27T11:44:13.632Z,45.51
2019-06-27T11:46:42.357Z,46.86
2019-06-27T11:49:11.089Z,47.31
2019-06-27T11:51:39.931Z,45.58
2019-06-27T11:54:09.016Z,45.42
2019-06-27T11:56:37.862Z,46.12
2019-06-27T11:59:06.959Z,45.34
2019-06-27T12:01:35.993Z,43.66
2019-06-27T12:04:05.039Z,43.45
2019-06-27T12:06:33.823Z,43.73
2019-06-27T12:09:04.927Z,44.74
2019-06-27T12:11:33.780Z,43.36
2019-06-27T12:14:02.708Z,42.13
2019-06-27T12:16:32.713Z,39.73
2019-06-27T12:19:01.485Z,36.14
2019-06-27T12:21:30.605Z,34.54
2019-06-27T12:23:59.687Z,29.06
2019-06-27T12:26:28.581Z,27.90
2019-06-27T12:28:58.032Z,25.87
2019-06-27T12:31:27.241Z,26.73
2019-06-27T12:34:06.378Z,27.68
2019-06-27T12:36:26.836Z,27.79
2019-06-27T12:38:55.580Z,27.05
2019-06-27T12:41:24.406Z,23.98
2019-06-27T12:43:53.192Z,23.65
2019-06-27T12:46:21.982Z,25.41
2019-06-27T12:48:50.746Z,26.83
2019-06-27T12:51:19.608Z,25.69
2019-06-27T12:53:49.721Z,23.79
2019-06-27T12:56:18.552Z,24.85
2019-06-27T12:58:47.599Z,22.76
2019-06-27T13:01:16.832Z,23.60
2019-06-27T13:03:45.898Z,24.44
2019-06-27T13:06:14.704Z,25.69
2019-06-27T13:08:44.156Z,23.70
2019-06-27T13:11:14.557Z,22.79
2019-06-27T13:13:43.260Z,23.60
2019-06-27T13:16:12.296Z,27.66
2019-06-27T13:18:46.992Z,27.55
2019-06-27T13:21:21.255Z,27.00
2019-06-27T13:23:50.301Z,24.93
2019-06-27T13:26:28.570Z,22.13
2019-06-27T13:29:00.498Z,22.23
2019-06-27T13:31:29.777Z,22.21
2019-06-27T13:33:58.552Z,21.64
2019-06-27T13:36:27.731Z,23.18
2019-06-27T13:38:56.515Z,21.95
2019-06-27T13:41:31.566Z,20.42
2019-06-27T13:44:00.496Z,20.17
2019-06-27T13:46:29.316Z,22.01
2019-06-27T13:48:58.084Z,20.60
2019-06-27T13:51:26.835Z,18.90
2019-06-27T13:53:55.819Z,18.54
2019-06-27T13:56:25.102Z,20.87
2019-06-27T13:58:54.052Z,22.70
2019-06-27T14:01:22.948Z,19.95
2019-06-27T14:03:51.818Z,20.50
2019-06-27T14:06:20.580Z,20.93
2019-06-27T14:08:49.712Z,19.41
2019-06-27T14:11:32.465Z,22.65
2019-06-27T14:14:11.359Z,22.22
2019-06-27T14:16:38.592Z,21.17
2019-06-27T14:19:07.368Z,18.84
2019-06-27T14:21:44.443Z,16.76
2019-06-27T14:24:17.382Z,18.50
2019-06-27T14:26:44.922Z,19.95
2019-06-27T14:29:14.661Z,21.48
2019-06-27T14:31:43.352Z,20.63
2019-06-27T14:34:12.311Z,20.31
2019-06-27T14:36:42.086Z,20.90
2019-06-27T14:39:10.837Z,21.47
2019-06-27T14:41:43.240Z,21.84
2019-06-27T14:44:12.341Z,22.37
2019-06-27T14:46:41.205Z,22.58
2019-06-27T14:49:10.009Z,23.91
2019-06-27T14:51:38.746Z,22.03
2019-06-27T14:54:07.647Z,22.65
2019-06-27T14:56:36.356Z,22.90
2019-06-27T14:59:05.468Z,21.70
2019-06-27T15:01:34.328Z,18.97
2019-06-27T15:04:06.002Z,19.22
2019-06-27T15:06:34.793Z,21.16
2019-06-27T15:09:03.729Z,20.42
2019-06-27T15:11:32.421Z,20.35
2019-06-27T15:14:01.213Z,25.54
2019-06-27T15:16:29.891Z,25.02
2019-06-27T15:18:58.602Z,21.94
2019-06-27T15:21:27.348Z,22.10
2019-06-27T15:23:56.082Z,21.05
2019-06-27T15:26:24.823Z,20.95
2019-06-27T15:28:53.498Z,20.95
2019-06-27T15:31:22.608Z,22.17
2019-06-27T15:33:51.331Z,21.65
2019-06-27T15:36:20.149Z,20.69
2019-06-27T15:38:48.969Z,20.38
2019-06-27T15:41:17.639Z,19.13
2019-06-27T15:43:46.486Z,18.86
2019-06-27T15:46:15.090Z,16.94
2019-06-27T15:48:44.132Z,18.77
2019-06-27T15:51:12.898Z,20.06
2019-06-27T15:53:41.601Z,19.22
2019-06-27T15:56:10.577Z,18.00
2019-06-27T15:58:39.319Z,19.42
2019-06-27T16:01:08.070Z,20.12
2019-06-27T16:03:36.723Z,19.89
2019-06-27T16:06:09.691Z,20.31
2019-06-27T16:08:35.895Z,20.51
2019-06-27T16:11:04.932Z,21.85
2019-06-27T16:13:33.912Z,21.46
2019-06-27T16:16:02.672Z,22.36
2019-06-27T16:18:31.406Z,22.35
2019-06-27T16:21:00.169Z,21.93
2019-06-27T16:23:28.948Z,23.06
2019-06-27T16:25:57.830Z,22.94
2019-06-27T16:28:27.306Z,23.64
2019-06-27T16:30:56.365Z,24.30
2019-06-27T16:33:25.208Z,24.46
2019-06-27T16:35:53.984Z,26.45
2019-06-27T16:38:22.808Z,26.93
2019-06-27T16:40:51.526Z,27.71
2019-06-27T16:43:20.503Z,27.50
2019-06-27T16:45:49.260Z,28.34
2019-06-27T16:48:18.200Z,29.55
2019-06-27T16:50:46.973Z,30.65
2019-06-27T16:53:16.008Z,31.35
2019-06-27T16:55:44.781Z,30.37
2019-06-27T16:58:13.543Z,32.37
2019-06-27T17:00:42.979Z,31.64
2019-06-27T17:03:11.767Z,29.94
2019-06-27T17:05:40.829Z,29.45
2019-06-27T17:08:09.875Z,29.95
2019-06-27T17:10:38.643Z,30.46
2019-06-27T17:13:07.518Z,31.08
2019-06-27T17:15:36.277Z,31.48
2019-06-27T17:18:05.051Z,31.83
2019-06-27T17:20:33.821Z,32.42
2019-06-27T17:23:05.415Z,32.47
2019-06-27T17:25:33.100Z,33.61
2019-06-27T17:28:02.063Z,35.06
2019-06-27T17:30:30.815Z,35.65
2019-06-27T17:33:02.527Z,35.21
2019-06-27T17:35:31.485Z,35.09
2019-06-27T17:38:00.173Z,36.88
2019-06-27T17:40:28.921Z,36.64
2019-06-27T17:42:57.859Z,37.61
2019-06-27T17:45:26.784Z,38.34
2019-06-27T17:47:56.083Z,38.05
2019-06-27T17:50:25.141Z,38.82
2019-06-27T17:52:54.398Z,38.84
2019-06-27T17:55:23.416Z,37.66
2019-06-27T17:57:52.415Z,39.88
2019-06-27T18:00:21.496Z,40.67
2019-06-27T18:02:50.494Z,40.57
2019-06-27T18:05:21.272Z,40.86
2019-06-27T18:07:50.003Z,41.03
2019-06-27T18:10:19.606Z,40.94
2019-06-27T18:12:48.427Z,41.57
2019-06-27T18:15:17.124Z,43.26
2019-06-27T18:17:46.113Z,43.22
2019-06-27T18:20:14.947Z,43.34
2019-06-27T18:22:43.718Z,43.20
2019-06-27T18:25:12.565Z,43.65
2019-06-27T18:27:41.366Z,44.27
2019-06-27T18:30:10.523Z,44.73
2019-06-27T18:32:39.553Z,45.02
2019-06-27T18:35:08.869Z,45.50
2019-06-27T18:37:37.656Z,46.05
2019-06-27T18:40:07.044Z,47.03
2019-06-27T18:42:36.132Z,48.05
2019-06-27T18:45:05.258Z,48.48
2019-06-27T18:47:34.008Z,48.71
2019-06-27T18:50:02.710Z,48.96
2019-06-27T18:52:31.741Z,49.32
2019-06-27T18:55:00.788Z,49.84
2019-06-27T18:57:29.542Z,50.29
2019-06-27T18:59:58.313Z,50.75
2019-06-27T19:02:27.006Z,51.22
2019-06-27T19:04:56.078Z,52.13
2019-06-27T19:07:25.255Z,52.56
2019-06-27T19:09:53.957Z,53.32
2019-06-27T19:12:22.642Z,53.93
2019-06-27T19:14:52.168Z,54.67
2019-06-27T19:17:20.836Z,55.28
2019-06-27T19:19:52.440Z,55.97
2019-06-27T19:22:43.631Z,56.64
2019-06-27T19:25:18.592Z,57.33
2019-06-27T19:27:47.278Z,58.00
2019-06-27T19:30:16.363Z,59.14
2019-06-27T19:32:45.420Z,60.92
2019-06-27T19:35:14.305Z,62.17
2019-06-27T19:37:43.312Z,64.07
2019-06-27T19:40:12.935Z,64.52
2019-06-27T19:42:41.782Z,64.95
2019-06-27T19:45:10.703Z,65.67
2019-06-27T19:47:39.474Z,66.28
2019-06-27T19:50:08.348Z,67.24
2019-06-27T19:52:37.319Z,68.44
2019-06-27T19:55:06.345Z,68.57
2019-06-27T19:57:35.245Z,68.67
2019-06-27T20:00:04.398Z,69.22
2019-06-27T20:02:33.489Z,69.68
2019-06-27T20:05:02.284Z,70.39
2019-06-27T20:07:31.007Z,71.10
2019-06-27T20:09:59.771Z,71.35
2019-06-27T20:12:28.847Z,71.78
2019-06-27T20:14:57.520Z,72.13
2019-06-27T20:17:26.194Z,72.81
2019-06-27T20:19:54.962Z,73.43
2019-06-27T20:22:23.678Z,74.59
2019-06-27T20:24:52.690Z,74.28
2019-06-27T20:27:21.476Z,74.68
2019-06-27T20:29:50.401Z,75.33
2019-06-27T20:32:19.069Z,75.45
2019-06-27T20:34:47.884Z,76.03
2019-06-27T20:37:16.589Z,76.53
2019-06-27T20:39:45.403Z,76.91
2019-06-27T20:42:17.542Z,77.49
2019-06-27T20:44:46.309Z,77.54
2019-06-27T20:47:17.944Z,78.14
2019-06-27T20:49:47.093Z,78.88
2019-06-27T20:52:15.861Z,78.75
2019-06-27T20:54:44.563Z,78.58
2019-06-27T20:57:13.570Z,79.07
2019-06-27T20:59:42.521Z,79.57
2019-06-27T21:02:11.290Z,79.61
2019-06-27T21:04:40.051Z,79.68
2019-06-27T21:07:09.938Z,79.89
2019-06-27T21:09:39.109Z,80.63
2019-06-27T21:12:07.912Z,80.67
2019-06-27T21:14:36.706Z,80.65
2019-06-27T21:17:05.552Z,80.88
2019-06-27T21:19:34.326Z,81.07
2019-06-27T21:22:03.524Z,81.42
2019-06-27T21:24:32.605Z,81.74
2019-06-27T21:27:01.717Z,82.00
2019-06-27T21:29:30.709Z,82.43
2019-06-27T21:32:02.721Z,82.78
2019-06-27T21:34:32.262Z,83.30
2019-06-27T21:37:00.946Z,83.69
2019-06-27T21:39:29.730Z,83.74
2019-06-27T21:41:58.724Z,84.10
2019-06-27T21:44:27.520Z,84.23
2019-06-27T21:46:56.226Z,85.13
2019-06-27T21:49:26.522Z,85.03
2019-06-27T21:51:55.617Z,84.97
2019-06-27T21:54:24.286Z,85.04
2019-06-27T21:56:53.267Z,85.34
2019-06-27T21:59:22.002Z,85.39
2019-06-27T22:01:51.030Z,85.27
2019-06-27T22:04:19.855Z,85.33
2019-06-27T22:06:48.518Z,85.63
2019-06-27T22:09:24.434Z,85.73
2019-06-27T22:11:48.192Z,86.09
2019-06-27T22:14:16.984Z,86.57
2019-06-27T22:16:45.735Z,86.83
2019-06-27T22:19:14.576Z,86.80
2019-06-27T22:21:43.255Z,87.04
2019-06-27T22:24:12.184Z,87.32
2019-06-27T22:26:41.167Z,87.48
2019-06-27T22:29:09.942Z,87.78
2019-06-27T22:31:38.703Z,87.92
2019-06-27T22:34:07.376Z,88.17
2019-06-27T22:36:36.109Z,88.29
2019-06-27T22:39:36.234Z,88.68
2019-06-27T22:42:11.165Z,89.20
2019-06-27T22:44:57.878Z,89.24
2019-06-27T22:47:44.589Z,89.35
2019-06-27T22:50:27.836Z,89.80
2019-06-27T22:53:06.099Z,90.08
2019-06-27T22:55:34.812Z,90.24
2019-06-27T22:58:03.779Z,90.31
2019-06-27T23:00:32.527Z,90.43
2019-06-27T23:03:01.557Z,90.76
2019-06-27T23:05:30.272Z,90.94
2019-06-27T23:07:59.197Z,91.25
2019-06-27T23:10:27.991Z,91.42
2019-06-27T23:12:56.669Z,91.65
2019-06-27T23:15:25.417Z,91.91
2019-06-27T23:17:54.191Z,92.20
2019-06-27T23:20:23.756Z,92.38
2019-06-27T23:22:52.613Z,92.82
2019-06-27T23:25:21.626Z,93.22
2019-06-27T23:27:50.334Z,93.69
2019-06-27T23:30:19.408Z,93.81
2019-06-27T23:32:48.211Z,93.75
2019-06-27T23:35:16.962Z,93.75
2019-06-27T23:37:45.631Z,94.02
2019-06-27T23:40:15.301Z,94.33
2019-06-27T23:42:44.356Z,94.12
2019-06-27T23:45:13.200Z,94.48
2019-06-27T23:47:41.966Z,94.63
2019-06-27T23:50:10.664Z,94.66
2019-06-27T23:52:39.687Z,94.75
2019-06-27T23:55:09.144Z,95.02
2019-06-27T23:57:37.843Z,95.26
